Time;durP1;ratioP1;P1;durP2;ratioP2;P2;SDS_P1;SDS_P2;PMS_P1;PMS_P2;Temp;Humidity;BMP_temperature;BMP_pressure;BME280_temperature;BME280_humidity;BME280_pressure;Samples;Min_cycle;Max_cycle;Signal;HPM_P1;HPM_P2
2022/06/07 00:00:54;;;;;;;6.10;4.55;;;;;;;;;;5094791;28;20082;-69
2022/06/07 00:03:21;;;;;;;5.68;4.65;;;;;;;;;;5094635;28;20043;-69
2022/06/07 00:05:48;;;;;;;7.72;4.82;;;;;;;;;;5094449;28;20036;-69
2022/06/07 00:08:16;;;;;;;7.53;6.18;;;;;;;;;;5095025;28;20055;-69
2022/06/07 00:10:43;;;;;;;6.43;4.57;;;;;;;;;;5094492;28;20036;-69
2022/06/07 00:13:11;;;;;;;4.80;4.40;;;;;;;;;;5094447;28;20630;-69
2022/06/07 00:15:37;;;;;;;5.72;4.75;;;;;;;;;;5094473;28;20055;-69
2022/06/07 00:18:03;;;;;;;4.90;4.50;;;;;;;;;;5094475;28;20109;-69
2022/06/07 00:20:29;;;;;;;5.65;4.60;;;;;;;;;;5094595;28;20050;-69
2022/06/07 00:22:56;;;;;;;6.82;4.80;;;;;;;;;;5094738;28;20043;-69
2022/06/07 00:25:22;;;;;;;6.45;4.55;;;;;;;;;;5094907;28;20113;-69
2022/06/07 00:27:48;;;;;;;4.43;4.00;;;;;;;;;;5094742;28;20406;-69
2022/06/07 00:30:15;;;;;;;6.18;4.75;;;;;;;;;;5094651;28;20040;-69
2022/06/07 00:32:42;;;;;;;5.03;4.60;;;;;;;;;;5094890;28;20040;-69
2022/06/07 00:35:09;;;;;;;5.15;4.38;;;;;;;;;;5094957;28;20048;-69
2022/06/07 00:37:35;;;;;;;7.90;4.55;;;;;;;;;;5094219;28;20140;-69
2022/06/07 00:40:01;;;;;;;5.70;4.93;;;;;;;;;;5094508;28;20048;-69
2022/06/07 00:42:28;;;;;;;7.70;4.97;;;;;;;;;;5094531;28;20041;-69
2022/06/07 00:44:54;;;;;;;8.27;4.95;;;;;;;;;;5094867;28;20509;-69
2022/06/07 00:47:23;;;;;;;7.05;4.88;;;;;;;;;;5094909;28;20048;-69
2022/06/07 00:49:55;;;;;;;5.05;4.65;;;;;;;;;;5094244;28;20073;-69
2022/06/07 00:52:22;;;;;;;6.50;4.88;;;;;;;;;;5094378;28;20077;-69
2022/06/07 00:54:49;;;;;;;4.78;4.05;;;;;;;;;;5094098;28;20050;-69
2022/06/07 00:57:15;;;;;;;5.60;5.10;;;;;;;;;;5094388;28;20105;-69
2022/06/07 00:59:41;;;;;;;7.72;4.85;;;;;;;;;;5094665;28;20040;-69
2022/06/07 01:02:08;;;;;;;5.45;4.85;;;;;;;;;;5094900;28;20062;-69
2022/06/07 01:04:35;;;;;;;10.32;5.00;;;;;;;;;;5094132;28;20106;-69
2022/06/07 01:12:32;;;;;;;7.82;4.70;;;;;;;;;;5097240;28;20128;-69
2022/06/07 01:14:58;;;;;;;7.30;4.93;;;;;;;;;;5097657;28;20044;-69
2022/06/07 01:17:24;;;;;;;7.55;4.88;;;;;;;;;;5097720;28;20072;-69
2022/06/07 01:19:51;;;;;;;6.13;4.80;;;;;;;;;;5097552;28;20040;-69
2022/06/07 01:22:17;;;;;;;5.90;4.70;;;;;;;;;;5097671;28;20563;-69
2022/06/07 01:24:44;;;;;;;6.00;4.93;;;;;;;;;;5098176;28;20483;-69
2022/06/07 01:27:10;;;;;;;5.57;4.93;;;;;;;;;;5097224;28;20093;-69
2022/06/07 01:29:36;;;;;;;5.40;4.63;;;;;;;;;;5097555;28;20040;-69
2022/06/07 01:32:03;;;;;;;6.38;4.70;;;;;;;;;;5097471;28;20032;-69
2022/06/07 01:34:29;;;;;;;5.80;5.15;;;;;;;;;;5097742;28;20097;-69
2022/06/07 01:36:56;;;;;;;9.65;4.78;;;;;;;;;;5096953;28;20082;-69
2022/06/07 01:42:08;;;;;;;7.40;4.93;;;;;;;;;;5096779;28;20040;-69
2022/06/07 01:44:38;;;;;;;7.53;5.25;;;;;;;;;;5097614;28;20040;-69
2022/06/07 01:47:05;;;;;;;9.25;5.15;;;;;;;;;;5096698;28;20048;-69
2022/06/07 01:49:31;;;;;;;5.53;5.03;;;;;;;;;;5096932;28;20036;-69
2022/06/07 01:51:58;;;;;;;5.88;5.28;;;;;;;;;;5096654;28;20036;-69
2022/06/07 01:54:25;;;;;;;6.13;5.03;;;;;;;;;;5096781;28;20071;-69
2022/06/07 01:56:51;;;;;;;5.80;5.20;;;;;;;;;;5096824;28;20079;-69
2022/06/07 01:59:18;;;;;;;8.23;5.57;;;;;;;;;;5096963;28;20040;-69
2022/06/07 02:01:44;;;;;;;6.57;5.57;;;;;;;;;;5096366;28;20044;-69
2022/06/07 02:04:10;;;;;;;6.10;5.20;;;;;;;;;;5096523;28;20032;-69
2022/06/07 02:06:37;;;;;;;6.65;5.70;;;;;;;;;;5096125;28;20036;-69
2022/06/07 02:09:03;;;;;;;5.95;5.45;;;;;;;;;;5096511;28;20040;-69
2022/06/07 02:11:29;;;;;;;7.13;6.22;;;;;;;;;;5096454;28;20067;-69
2022/06/07 02:13:56;;;;;;;7.82;6.03;;;;;;;;;;5096676;28;20118;-69
2022/06/07 02:16:23;;;;;;;8.02;6.35;;;;;;;;;;5096290;28;20123;-69
2022/06/07 02:18:49;;;;;;;7.90;6.53;;;;;;;;;;5096228;28;20072;-69
2022/06/07 02:21:16;;;;;;;7.97;6.28;;;;;;;;;;5095626;28;20036;-69
2022/06/07 02:23:42;;;;;;;7.28;6.50;;;;;;;;;;5096191;28;20028;-69
2022/06/07 02:26:15;;;;;;;7.28;6.63;;;;;;;;;;5096052;28;20380;-69
2022/06/07 02:28:43;;;;;;;10.38;7.10;;;;;;;;;;5096018;28;20048;-69
2022/06/07 02:31:10;;;;;;;9.68;7.10;;;;;;;;;;5096170;28;20036;-69
2022/06/07 02:33:38;;;;;;;7.30;6.63;;;;;;;;;;5095729;28;20039;-69
2022/06/07 02:36:06;;;;;;;9.63;7.13;;;;;;;;;;5095951;28;20105;-69
2022/06/07 02:38:32;;;;;;;10.50;6.68;;;;;;;;;;5096222;28;20089;-69
2022/06/07 02:40:58;;;;;;;8.52;6.90;;;;;;;;;;5095851;28;20065;-69
2022/06/07 02:43:24;;;;;;;10.65;8.00;;;;;;;;;;5095778;28;20043;-69
2022/06/07 02:45:51;;;;;;;10.02;7.65;;;;;;;;;;5095859;28;20056;-69
2022/06/07 02:48:17;;;;;;;9.63;6.75;;;;;;;;;;5096293;28;20079;-69
2022/06/07 02:50:43;;;;;;;7.53;6.72;;;;;;;;;;5095818;28;20554;-69
2022/06/07 02:53:09;;;;;;;9.40;8.13;;;;;;;;;;5095639;28;20494;-69
2022/06/07 02:55:35;;;;;;;9.65;8.00;;;;;;;;;;5095754;28;20043;-69
2022/06/07 02:58:01;;;;;;;9.55;8.02;;;;;;;;;;5095263;28;20044;-69
2022/06/07 03:00:28;;;;;;;10.00;8.30;;;;;;;;;;5095479;28;20043;-69
2022/06/07 03:02:54;;;;;;;9.32;7.90;;;;;;;;;;5095473;28;20131;-69
2022/06/07 03:05:20;;;;;;;11.48;8.95;;;;;;;;;;5095371;28;20100;-69
2022/06/07 03:07:46;;;;;;;9.70;8.60;;;;;;;;;;5095541;28;20052;-69
2022/06/07 03:10:12;;;;;;;8.82;8.02;;;;;;;;;;5094976;28;20380;-69
2022/06/07 03:12:39;;;;;;;9.82;8.23;;;;;;;;;;5095235;28;20441;-69
2022/06/07 03:15:08;;;;;;;11.45;8.48;;;;;;;;;;5101208;28;20082;-69
2022/06/07 03:17:34;;;;;;;10.50;8.02;;;;;;;;;;5114583;28;20069;-69
2022/06/07 03:20:00;;;;;;;8.45;7.45;;;;;;;;;;5114102;28;20057;-69
2022/06/07 03:22:26;;;;;;;9.90;8.07;;;;;;;;;;5115465;28;20038;-69
2022/06/07 03:24:53;;;;;;;10.13;8.68;;;;;;;;;;5115493;28;20044;-69
2022/06/07 03:27:19;;;;;;;10.80;7.90;;;;;;;;;;5115049;28;20096;-69
2022/06/07 03:29:45;;;;;;;10.35;8.27;;;;;;;;;;5115044;28;20418;-69
2022/06/07 03:32:11;;;;;;;10.68;8.32;;;;;;;;;;5115346;28;20074;-69
2022/06/07 03:34:39;;;;;;;10.20;7.57;;;;;;;;;;5114965;28;20121;-69
2022/06/07 03:37:05;;;;;;;9.38;8.23;;;;;;;;;;5115183;28;20096;-69
2022/06/07 03:39:31;;;;;;;8.15;7.45;;;;;;;;;;5115229;28;20093;-69
2022/06/07 03:41:57;;;;;;;10.48;7.75;;;;;;;;;;5114942;28;20235;-69
2022/06/07 03:44:23;;;;;;;8.88;7.32;;;;;;;;;;5115208;28;20173;-69
2022/06/07 03:46:50;;;;;;;11.15;7.32;;;;;;;;;;5115291;28;20043;-69
2022/06/07 03:49:16;;;;;;;9.88;7.35;;;;;;;;;;5115361;28;20119;-69
2022/06/07 03:51:42;;;;;;;10.32;7.55;;;;;;;;;;5115291;28;20065;-69
2022/06/07 03:54:09;;;;;;;8.70;7.80;;;;;;;;;;5115327;28;20498;-69
2022/06/07 03:56:35;;;;;;;8.43;7.63;;;;;;;;;;5115376;28;20097;-69
2022/06/07 03:59:01;;;;;;;9.95;7.85;;;;;;;;;;5115271;28;20063;-69
2022/06/07 04:01:28;;;;;;;9.93;8.20;;;;;;;;;;5114999;28;20043;-69
2022/06/07 04:03:56;;;;;;;9.88;7.53;;;;;;;;;;5114984;28;20062;-69
2022/06/07 04:06:23;;;;;;;10.90;7.85;;;;;;;;;;5114530;28;20055;-69
2022/06/07 04:08:50;;;;;;;15.35;8.65;;;;;;;;;;5114775;28;20050;-69
2022/06/07 04:11:20;;;;;;;9.38;7.05;;;;;;;;;;5115397;28;20092;-69
2022/06/07 04:13:46;;;;;;;8.18;6.97;;;;;;;;;;5115179;28;20032;-69
2022/06/07 04:16:15;;;;;;;10.18;7.25;;;;;;;;;;5115479;28;20134;-69
2022/06/07 04:18:42;;;;;;;8.70;7.60;;;;;;;;;;5115065;28;20039;-69
2022/06/07 04:21:09;;;;;;;9.45;6.63;;;;;;;;;;5114820;28;20039;-69
2022/06/07 04:23:35;;;;;;;8.05;7.28;;;;;;;;;;5114772;28;20043;-69
2022/06/07 04:26:11;;;;;;;11.43;7.10;;;;;;;;;;5115127;28;20077;-69
2022/06/07 04:28:37;;;;;;;8.32;6.80;;;;;;;;;;5115514;28;20466;-69
2022/06/07 04:31:03;;;;;;;9.73;7.30;;;;;;;;;;5115061;28;20050;-69
2022/06/07 04:33:30;;;;;;;10.95;6.97;;;;;;;;;;5115019;28;20043;-71
2022/06/07 04:35:56;;;;;;;12.65;7.25;;;;;;;;;;5115111;28;20043;-69
2022/06/07 04:38:22;;;;;;;7.20;6.47;;;;;;;;;;5114235;28;20043;-69
2022/06/07 04:40:48;;;;;;;10.18;6.75;;;;;;;;;;5113168;28;20043;-69
2022/06/07 04:43:14;;;;;;;9.30;7.15;;;;;;;;;;5113342;28;20086;-69
2022/06/07 04:45:41;;;;;;;9.70;6.82;;;;;;;;;;5113906;28;20062;-69
2022/06/07 04:48:08;;;;;;;8.63;7.15;;;;;;;;;;5118410;28;20071;-69
2022/06/07 04:50:34;;;;;;;9.05;6.78;;;;;;;;;;5118599;28;20077;-69
2022/06/07 04:53:01;;;;;;;8.38;7.07;;;;;;;;;;5119248;28;20097;-69
2022/06/07 04:55:27;;;;;;;7.93;7.05;;;;;;;;;;5119123;28;20043;-69
2022/06/07 04:57:53;;;;;;;9.52;6.78;;;;;;;;;;5118739;28;20066;-69
2022/06/07 05:00:19;;;;;;;7.97;6.75;;;;;;;;;;5118441;27;20050;-69
2022/06/07 05:02:47;;;;;;;13.50;7.75;;;;;;;;;;5118413;28;20539;-69
2022/06/07 05:05:14;;;;;;;11.32;7.00;;;;;;;;;;5098098;28;20494;-68
2022/06/07 05:07:41;;;;;;;8.20;7.40;;;;;;;;;;5095969;28;20043;-69
2022/06/07 05:10:08;;;;;;;9.98;7.47;;;;;;;;;;5096703;28;20163;-68
2022/06/07 05:12:35;;;;;;;9.10;7.63;;;;;;;;;;5096996;28;20119;-72
2022/06/07 05:15:03;;;;;;;7.68;6.93;;;;;;;;;;5097923;28;20044;-71
2022/06/07 05:17:30;;;;;;;6.88;6.10;;;;;;;;;;5097794;28;20075;-71
2022/06/07 05:19:56;;;;;;;7.30;5.70;;;;;;;;;;5097599;28;20050;-71
2022/06/07 05:22:22;;;;;;;6.50;5.85;;;;;;;;;;5096531;28;20074;-71
2022/06/07 05:24:48;;;;;;;11.43;5.75;;;;;;;;;;5096301;28;20036;-71
2022/06/07 05:27:17;;;;;;;6.75;6.00;;;;;;;;;;5091594;28;20044;-72
2022/06/07 05:29:43;;;;;;;7.55;5.45;;;;;;;;;;5103755;28;20135;-71
2022/06/07 05:32:09;;;;;;;6.15;5.35;;;;;;;;;;5096570;28;20044;-72
2022/06/07 05:34:35;;;;;;;11.57;5.20;;;;;;;;;;5096188;28;20048;-72
2022/06/07 05:37:01;;;;;;;6.78;5.38;;;;;;;;;;5097305;28;20047;-72
2022/06/07 05:39:29;;;;;;;6.47;5.03;;;;;;;;;;5108958;28;20043;-72
2022/06/07 05:41:55;;;;;;;5.68;4.13;;;;;;;;;;5117748;28;20482;-72
2022/06/07 05:44:22;;;;;;;7.40;4.85;;;;;;;;;;5101552;28;20070;-72
2022/06/07 05:46:49;;;;;;;6.18;4.70;;;;;;;;;;5096277;28;20126;-72
2022/06/07 05:49:16;;;;;;;4.28;3.92;;;;;;;;;;5094966;28;20052;-72
2022/06/07 05:51:42;;;;;;;4.32;3.92;;;;;;;;;;5094508;28;20028;-73
2022/06/07 05:54:10;;;;;;;3.95;3.55;;;;;;;;;;5095685;28;20040;-72
2022/06/07 05:56:36;;;;;;;5.95;3.90;;;;;;;;;;5095044;28;20123;-72
2022/06/07 05:59:05;;;;;;;6.03;4.20;;;;;;;;;;5095833;28;20043;-71
2022/06/07 06:01:32;;;;;;;5.32;3.83;;;;;;;;;;5095024;28;20415;-72
2022/06/07 06:03:58;;;;;;;7.60;4.82;;;;;;;;;;5094919;28;20067;-72
2022/06/07 06:06:25;;;;;;;8.90;4.18;;;;;;;;;;5095683;28;20065;-72
2022/06/07 06:11:36;;;;;;;6.63;4.25;;;;;;;;;;5096101;28;20043;-72
2022/06/07 06:14:03;;;;;;;4.88;3.63;;;;;;;;;;5096424;28;20075;-72
2022/06/07 06:16:29;;;;;;;6.78;4.55;;;;;;;;;;5096064;28;20431;-72
2022/06/07 06:18:56;;;;;;;4.32;3.72;;;;;;;;;;5096334;28;20059;-75
2022/06/07 06:21:24;;;;;;;5.85;5.00;;;;;;;;;;5096122;28;20089;-72
2022/06/07 06:23:51;;;;;;;9.15;4.90;;;;;;;;;;5096519;28;20097;-73
2022/06/07 06:26:18;;;;;;;8.20;5.35;;;;;;;;;;5096313;28;20040;-74
2022/06/07 06:28:45;;;;;;;6.82;5.18;;;;;;;;;;5095953;28;20043;-70
2022/06/07 06:31:11;;;;;;;9.00;5.90;;;;;;;;;;5095822;28;20040;-70
2022/06/07 06:33:42;;;;;;;7.07;5.43;;;;;;;;;;5094616;28;20089;-70
2022/06/07 06:36:10;;;;;;;7.13;5.03;;;;;;;;;;5096113;28;20036;-70
2022/06/07 06:38:37;;;;;;;7.13;6.07;;;;;;;;;;5095992;28;20074;-70
2022/06/07 06:41:10;;;;;;;8.32;5.90;;;;;;;;;;5095945;28;20063;-70
2022/06/07 06:43:36;;;;;;;7.93;5.78;;;;;;;;;;5095863;28;20036;-70
2022/06/07 06:46:03;;;;;;;7.95;5.30;;;;;;;;;;5095892;28;20059;-70
2022/06/07 06:48:29;;;;;;;6.82;5.47;;;;;;;;;;5095995;28;20047;-70
2022/06/07 06:51:04;;;;;;;7.55;4.50;;;;;;;;;;5096048;28;20483;-70
2022/06/07 06:53:30;;;;;;;8.18;5.03;;;;;;;;;;5095878;28;20032;-70
2022/06/07 06:55:57;;;;;;;5.90;4.57;;;;;;;;;;5095929;28;20046;-70
2022/06/07 06:58:25;;;;;;;4.88;3.72;;;;;;;;;;5095807;28;20050;-70
2022/06/07 07:01:01;;;;;;;5.93;4.00;;;;;;;;;;5096198;28;20113;-70
2022/06/07 07:03:27;;;;;;;5.07;4.00;;;;;;;;;;5095434;28;20047;-70
2022/06/07 07:05:55;;;;;;;3.60;3.30;;;;;;;;;;5095764;28;20044;-70
2022/06/07 07:08:21;;;;;;;3.10;2.80;;;;;;;;;;5094763;28;20047;-70
2022/06/07 07:10:48;;;;;;;6.50;3.40;;;;;;;;;;5095790;28;20044;-70
2022/06/07 07:13:14;;;;;;;5.22;3.33;;;;;;;;;;5096156;28;20122;-70
2022/06/07 07:15:40;;;;;;;4.28;3.20;;;;;;;;;;5095050;28;20439;-70
2022/06/07 07:18:06;;;;;;;4.57;3.75;;;;;;;;;;5095128;28;20032;-70
2022/06/07 07:20:32;;;;;;;7.60;5.28;;;;;;;;;;5095375;28;20051;-70
2022/06/07 07:22:58;;;;;;;7.90;3.92;;;;;;;;;;5095173;28;20034;-69
2022/06/07 07:25:24;;;;;;;7.75;4.50;;;;;;;;;;5095613;28;20048;-70
2022/06/07 07:27:51;;;;;;;5.20;4.40;;;;;;;;;;5095384;28;20470;-70
2022/06/07 07:30:17;;;;;;;4.53;3.58;;;;;;;;;;5095523;28;20040;-70
2022/06/07 07:32:43;;;;;;;4.97;4.07;;;;;;;;;;5095033;28;20390;-70
2022/06/07 07:35:09;;;;;;;4.78;3.55;;;;;;;;;;5095150;28;20039;-69
2022/06/07 07:37:35;;;;;;;5.72;3.70;;;;;;;;;;5095203;28;20040;-70
2022/06/07 07:40:01;;;;;;;6.57;3.75;;;;;;;;;;5095550;28;20071;-70
2022/06/07 07:42:27;;;;;;;4.25;3.30;;;;;;;;;;5095080;28;20038;-70
2022/06/07 07:44:53;;;;;;;3.42;3.13;;;;;;;;;;5095739;28;20513;-70
2022/06/07 07:47:20;;;;;;;5.45;3.10;;;;;;;;;;5094868;28;20043;-70
2022/06/07 07:49:46;;;;;;;4.13;3.10;;;;;;;;;;5095242;28;20040;-70
2022/06/07 07:52:12;;;;;;;3.40;3.10;;;;;;;;;;5095018;28;20520;-70
2022/06/07 07:54:39;;;;;;;4.00;2.80;;;;;;;;;;5094429;28;20521;-69
2022/06/07 07:57:05;;;;;;;3.55;2.72;;;;;;;;;;5094600;28;20428;-70
2022/06/07 07:59:31;;;;;;;3.67;2.30;;;;;;;;;;5094632;28;20512;-70
2022/06/07 08:01:59;;;;;;;2.25;1.90;;;;;;;;;;5094963;28;20174;-70
2022/06/07 08:04:25;;;;;;;2.13;1.60;;;;;;;;;;5094842;28;20039;-70
2022/06/07 08:06:51;;;;;;;1.40;1.30;;;;;;;;;;5094317;28;20032;-70
2022/06/07 08:09:17;;;;;;;1.50;1.40;;;;;;;;;;5095143;28;20494;-70
2022/06/07 08:11:44;;;;;;;1.30;1.10;;;;;;;;;;5094821;28;20043;-70
2022/06/07 08:14:14;;;;;;;2.17;1.10;;;;;;;;;;5094848;28;20112;-70
2022/06/07 08:16:41;;;;;;;1.45;1.30;;;;;;;;;;5094522;28;20164;-70
2022/06/07 08:19:10;;;;;;;1.30;1.10;;;;;;;;;;5094965;28;20032;-70
2022/06/07 08:21:37;;;;;;;1.30;1.02;;;;;;;;;;5098374;28;20036;-70
2022/06/07 08:24:04;;;;;;;2.05;1.02;;;;;;;;;;5099147;28;20063;-70
2022/06/07 08:26:31;;;;;;;1.75;1.00;;;;;;;;;;5098504;28;20046;-70
2022/06/07 08:28:57;;;;;;;2.22;1.00;;;;;;;;;;5098661;28;20043;-69
2022/06/07 08:31:24;;;;;;;3.10;1.15;;;;;;;;;;5098547;28;20067;-70
2022/06/07 08:39:20;;;;;;;2.38;1.30;;;;;;;;;;5098610;28;20539;-70
2022/06/07 08:41:54;;;;;;;1.50;1.02;;;;;;;;;;5098525;28;20027;-70
2022/06/07 08:44:26;;;;;;;3.83;1.30;;;;;;;;;;5098833;28;20048;-70
2022/06/07 08:46:54;;;;;;;1.73;1.15;;;;;;;;;;5098521;28;20101;-70
2022/06/07 08:49:21;;;;;;;1.60;1.23;;;;;;;;;;5098100;28;20039;-69
2022/06/07 08:52:06;;;;;;;2.55;1.10;;;;;;;;;;5098139;28;20040;-70
2022/06/07 08:54:35;;;;;;;2.15;1.27;;;;;;;;;;5098345;28;20032;-69
2022/06/07 08:57:05;;;;;;;1.75;1.00;;;;;;;;;;5098254;28;20063;-70
2022/06/07 08:59:31;;;;;;;2.17;0.90;;;;;;;;;;5097927;28;20046;-69
2022/06/07 09:02:17;;;;;;;1.10;0.90;;;;;;;;;;5097853;28;20112;-70
2022/06/07 09:04:43;;;;;;;1.88;1.23;;;;;;;;;;5098529;28;20075;-70
2022/06/07 09:07:16;;;;;;;1.38;0.90;;;;;;;;;;5097959;28;20043;-70
2022/06/07 09:12:34;;;;;;;2.65;0.90;;;;;;;;;;5097452;28;20042;-70
2022/06/07 09:15:03;;;;;;;1.60;0.90;;;;;;;;;;5098253;28;20474;-70
2022/06/07 09:17:32;;;;;;;1.10;0.98;;;;;;;;;;5097507;28;20036;-70
2022/06/07 09:19:58;;;;;;;1.23;0.82;;;;;;;;;;5097285;28;20040;-69
2022/06/07 09:22:37;;;;;;;2.30;1.35;;;;;;;;;;5097503;28;20067;-69
2022/06/07 09:25:15;;;;;;;0.70;0.70;;;;;;;;;;5098298;28;20044;-69
2022/06/07 09:27:42;;;;;;;0.80;0.80;;;;;;;;;;5097905;28;20075;-69
2022/06/07 09:30:31;;;;;;;1.00;0.90;;;;;;;;;;5097610;28;20044;-69
2022/06/07 09:32:57;;;;;;;1.42;0.98;;;;;;;;;;5090959;28;20047;-69
2022/06/07 09:35:41;;;;;;;0.80;0.80;;;;;;;;;;5097474;28;20032;-69
2022/06/07 09:38:28;;;;;;;0.73;0.68;;;;;;;;;;5097499;28;20047;-69
2022/06/07 09:40:54;;;;;;;1.05;0.60;;;;;;;;;;5096799;28;20075;-69
2022/06/07 09:43:24;;;;;;;5.53;0.80;;;;;;;;;;5097388;28;20058;-69
2022/06/07 09:45:53;;;;;;;1.37;0.80;;;;;;;;;;5097272;28;20083;-69
2022/06/07 09:48:32;;;;;;;0.98;0.70;;;;;;;;;;5097543;28;20048;-69
2022/06/07 09:51:01;;;;;;;1.30;0.80;;;;;;;;;;5096683;28;20463;-69
2022/06/07 09:53:34;;;;;;;1.20;1.08;;;;;;;;;;5097112;28;20043;-69
2022/06/07 09:56:01;;;;;;;2.80;0.90;;;;;;;;;;5096814;28;20032;-69
2022/06/07 09:58:33;;;;;;;1.48;0.90;;;;;;;;;;5096995;28;20055;-69
2022/06/07 10:01:19;;;;;;;1.83;0.93;;;;;;;;;;5096653;28;20122;-69
2022/06/07 10:03:52;;;;;;;1.52;1.00;;;;;;;;;;5096780;28;20044;-69
2022/06/07 10:06:22;;;;;;;1.00;0.80;;;;;;;;;;5096859;28;20072;-69
2022/06/07 10:08:49;;;;;;;2.78;0.93;;;;;;;;;;5096523;28;20071;-69
2022/06/07 10:11:18;;;;;;;2.63;0.85;;;;;;;;;;5096474;28;20125;-69
2022/06/07 10:13:44;;;;;;;1.20;0.75;;;;;;;;;;5097349;28;20046;-69
2022/06/07 10:16:13;;;;;;;1.15;0.70;;;;;;;;;;5097034;28;20102;-69
2022/06/07 10:18:46;;;;;;;1.73;1.02;;;;;;;;;;5096281;28;20482;-69
2022/06/07 10:21:31;;;;;;;3.63;1.13;;;;;;;;;;5096084;28;20059;-69
2022/06/07 10:24:12;;;;;;;1.58;0.90;;;;;;;;;;5096238;28;20028;-69
2022/06/07 10:26:45;;;;;;;1.38;0.98;;;;;;;;;;5096406;28;20555;-69
2022/06/07 10:29:20;;;;;;;2.45;1.50;;;;;;;;;;5096040;28;20090;-69
2022/06/07 10:31:56;;;;;;;2.20;1.23;;;;;;;;;;5096429;28;20093;-69
2022/06/07 10:34:37;;;;;;;1.55;1.10;;;;;;;;;;5096011;28;20032;-69
2022/06/07 10:37:03;;;;;;;3.08;1.20;;;;;;;;;;5096373;28;20116;-69
2022/06/07 10:39:51;;;;;;;1.23;1.08;;;;;;;;;;5096240;28;20459;-69
2022/06/07 10:42:34;;;;;;;2.95;1.20;;;;;;;;;;5096350;28;20423;-69
2022/06/07 10:45:27;;;;;;;2.03;1.02;;;;;;;;;;5095554;28;20115;-70
2022/06/07 10:47:56;;;;;;;1.92;1.20;;;;;;;;;;5093691;28;20399;-69
2022/06/07 10:50:26;;;;;;;3.45;1.15;;;;;;;;;;5095478;28;20077;-69
2022/06/07 10:53:15;;;;;;;2.63;1.42;;;;;;;;;;5096041;28;20032;-69
2022/06/07 10:55:51;;;;;;;2.72;1.30;;;;;;;;;;5090660;28;20437;-69
2022/06/07 10:58:26;;;;;;;3.42;1.40;;;;;;;;;;5095915;28;20077;-69
2022/06/07 11:00:59;;;;;;;1.73;1.33;;;;;;;;;;5096234;28;20492;-69
2022/06/07 11:03:31;;;;;;;3.15;1.38;;;;;;;;;;5095540;28;20503;-69
2022/06/07 11:09:24;;;;;;;1.77;1.13;;;;;;;;;;5095197;28;20538;-69
2022/06/07 11:11:52;;;;;;;3.40;1.30;;;;;;;;;;5079318;28;20736;-69
2022/06/07 11:14:38;;;;;;;1.17;1.08;;;;;;;;;;5095683;28;20065;-69
2022/06/07 11:17:16;;;;;;;2.00;1.20;;;;;;;;;;5095270;28;20123;-70
2022/06/07 11:19:42;;;;;;;4.13;1.75;;;;;;;;;;5095749;28;20076;-70
2022/06/07 11:22:14;;;;;;;3.50;1.20;;;;;;;;;;5095432;28;20465;-69
2022/06/07 11:24:54;;;;;;;1.75;1.40;;;;;;;;;;5095541;28;20114;-69
2022/06/07 11:27:22;;;;;;;2.03;1.27;;;;;;;;;;5095358;28;20147;-69
2022/06/07 11:29:49;;;;;;;1.45;1.13;;;;;;;;;;5095342;28;20043;-69
2022/06/07 11:32:34;;;;;;;2.35;1.27;;;;;;;;;;5096097;28;20043;-70
2022/06/07 11:35:20;;;;;;;3.28;1.70;;;;;;;;;;5094928;28;20043;-70
2022/06/07 11:37:52;;;;;;;2.47;1.40;;;;;;;;;;5095069;28;20047;-70
2022/06/07 11:40:29;;;;;;;2.00;1.20;;;;;;;;;;5095488;28;20112;-70
2022/06/07 11:42:55;;;;;;;3.33;1.27;;;;;;;;;;5095174;28;20043;-69
2022/06/07 11:45:24;;;;;;;2.78;1.38;;;;;;;;;;5095203;28;20046;-70
2022/06/07 11:48:04;;;;;;;4.88;1.40;;;;;;;;;;5095638;28;20052;-69
2022/06/07 11:50:31;;;;;;;;;;;;;;;;;;5094996;28;20486;-70
2022/06/07 11:53:14;;;;;;;2.40;1.27;;;;;;;;;;5094747;28;19908;-70
2022/06/07 11:55:42;;;;;;;1.83;1.10;;;;;;;;;;5095002;28;20044;-69
2022/06/07 11:58:08;;;;;;;1.77;1.10;;;;;;;;;;5094626;28;20032;-69
2022/06/07 12:00:40;;;;;;;1.38;1.13;;;;;;;;;;5094918;28;20032;-69
2022/06/07 12:03:07;;;;;;;1.60;0.85;;;;;;;;;;5095129;28;20032;-69
2022/06/07 12:05:38;;;;;;;1.55;1.13;;;;;;;;;;5094454;28;20505;-69
2022/06/07 12:08:04;;;;;;;;;;;;;;;;;;5095334;28;20059;-70
2022/06/07 12:10:32;;;;;;;3.67;1.08;;;;;;;;;;5095294;28;19955;-70
2022/06/07 12:13:01;;;;;;;2.53;1.40;;;;;;;;;;5094728;28;20467;-70
2022/06/07 12:15:42;;;;;;;1.83;1.23;;;;;;;;;;5095075;28;20044;-70
2022/06/07 12:18:20;;;;;;;5.65;1.27;;;;;;;;;;5094816;28;20541;-70
2022/06/07 12:20:54;;;;;;;2.05;1.10;;;;;;;;;;5094218;28;20043;-70
2022/06/07 12:23:23;;;;;;;3.10;1.38;;;;;;;;;;5095171;28;20047;-69
2022/06/07 12:26:06;;;;;;;2.92;1.30;;;;;;;;;;5094944;28;20040;-70
2022/06/07 12:28:35;;;;;;;1.00;0.90;;;;;;;;;;5094536;28;20075;-70
2022/06/07 12:31:14;;;;;;;1.33;0.80;;;;;;;;;;5094310;28;20046;-70
2022/06/07 12:33:40;;;;;;;1.20;1.10;;;;;;;;;;5094657;28;20071;-70
2022/06/07 12:36:18;;;;;;;1.45;0.88;;;;;;;;;;5093853;28;20036;-70
2022/06/07 12:38:45;;;;;;;1.73;1.00;;;;;;;;;;5094602;28;20048;-70
2022/06/07 12:41:17;;;;;;;1.40;1.10;;;;;;;;;;5094293;28;20042;-70
2022/06/07 12:43:48;;;;;;;1.02;0.98;;;;;;;;;;5094471;28;20481;-70
2022/06/07 12:46:22;;;;;;;1.15;1.05;;;;;;;;;;5094703;28;20121;-70
2022/06/07 12:48:49;;;;;;;4.20;1.30;;;;;;;;;;5094344;28;20071;-69
2022/06/07 12:51:28;;;;;;;4.60;1.25;;;;;;;;;;5094217;28;20040;-69
2022/06/07 12:54:06;;;;;;;2.83;1.00;;;;;;;;;;5094483;28;20058;-68
2022/06/07 12:56:35;;;;;;;1.10;0.90;;;;;;;;;;5094672;28;20031;-69
2022/06/07 12:59:05;;;;;;;1.20;1.10;;;;;;;;;;5094343;28;20040;-69
2022/06/07 13:01:34;;;;;;;4.78;1.38;;;;;;;;;;5094215;28;20050;-69
2022/06/07 13:04:04;;;;;;;2.95;1.10;;;;;;;;;;5094126;28;20044;-69
2022/06/07 13:06:30;;;;;;;3.58;1.20;;;;;;;;;;5094910;28;20048;-69
2022/06/07 13:08:58;;;;;;;1.95;0.95;;;;;;;;;;5098555;28;20482;-69
2022/06/07 13:11:25;;;;;;;1.52;1.17;;;;;;;;;;5097971;28;20035;-69
2022/06/07 13:13:52;;;;;;;6.45;1.30;;;;;;;;;;5097952;28;20065;-69
2022/06/07 13:16:21;;;;;;;2.05;1.10;;;;;;;;;;5097801;28;20044;-69
2022/06/07 13:19:01;;;;;;;1.35;0.90;;;;;;;;;;5097553;28;20200;-69
2022/06/07 13:21:33;;;;;;;1.30;1.17;;;;;;;;;;5097483;28;20063;-69
2022/06/07 13:23:59;;;;;;;3.25;1.45;;;;;;;;;;5097691;28;20036;-69
2022/06/07 13:26:26;;;;;;;2.85;1.40;;;;;;;;;;5097627;28;20499;-69
2022/06/07 13:29:16;;;;;;;1.45;1.08;;;;;;;;;;5097345;28;20058;-69
2022/06/07 13:31:43;;;;;;;;;;;;;;;;;;5097804;28;20068;-69
2022/06/07 13:34:19;;;;;;;2.50;1.08;;;;;;;;;;5097507;28;19915;-69
2022/06/07 13:36:46;;;;;;;1.95;1.35;;;;;;;;;;5097119;28;20114;-68
2022/06/07 13:39:38;;;;;;;1.13;0.93;;;;;;;;;;5097729;28;20121;-69
2022/06/07 13:42:14;;;;;;;2.17;0.90;;;;;;;;;;5095209;28;20066;-68
2022/06/07 13:44:42;;;;;;;1.83;1.17;;;;;;;;;;5097125;28;20410;-68
2022/06/07 13:47:21;;;;;;;1.00;0.90;;;;;;;;;;5097222;28;20052;-69
2022/06/07 13:55:45;;;;;;;1.25;0.90;;;;;;;;;;5096343;28;20043;-68
2022/06/07 13:58:11;;;;;;;2.35;1.08;;;;;;;;;;5097167;28;20044;-69
2022/06/07 14:00:37;;;;;;;2.25;1.17;;;;;;;;;;5096759;28;20127;-68
2022/06/07 14:03:06;;;;;;;2.83;1.02;;;;;;;;;;5096995;28;20044;-68
2022/06/07 14:05:34;;;;;;;3.10;1.02;;;;;;;;;;5096635;28;20043;-69
2022/06/07 14:08:01;;;;;;;3.13;1.30;;;;;;;;;;5097032;28;20548;-69
2022/06/07 14:10:27;;;;;;;3.33;1.20;;;;;;;;;;5096747;28;20040;-69
2022/06/07 14:12:53;;;;;;;2.88;1.00;;;;;;;;;;5096506;28;20044;-69
2022/06/07 14:15:20;;;;;;;1.88;1.10;;;;;;;;;;5097116;28;20063;-69
2022/06/07 14:17:47;;;;;;;4.07;1.33;;;;;;;;;;5096081;28;20058;-69
2022/06/07 14:20:20;;;;;;;2.45;1.00;;;;;;;;;;5095921;28;20040;-69
2022/06/07 14:22:46;;;;;;;2.85;1.00;;;;;;;;;;5096352;28;20048;-68
2022/06/07 14:25:17;;;;;;;1.67;1.00;;;;;;;;;;5096571;28;20075;-68
2022/06/07 14:27:44;;;;;;;2.33;1.10;;;;;;;;;;5096715;28;20040;-69
2022/06/07 14:30:10;;;;;;;2.42;1.20;;;;;;;;;;5095811;28;20149;-69
2022/06/07 14:32:40;;;;;;;1.50;0.93;;;;;;;;;;5096670;28;20479;-69
2022/06/07 14:35:13;;;;;;;2.75;1.27;;;;;;;;;;5095966;28;20051;-69
2022/06/07 14:37:39;;;;;;;0.95;0.90;;;;;;;;;;5096352;28;20047;-69
2022/06/07 14:40:14;;;;;;;4.68;1.13;;;;;;;;;;5095642;28;20065;-69
2022/06/07 14:42:42;;;;;;;2.55;1.08;;;;;;;;;;5096571;28;20043;-69
2022/06/07 14:45:10;;;;;;;2.13;1.00;;;;;;;;;;5095886;28;20039;-69
2022/06/07 14:47:36;;;;;;;5.65;1.27;;;;;;;;;;5097080;28;20082;-69
2022/06/07 14:50:03;;;;;;;3.35;1.13;;;;;;;;;;5095908;28;20097;-69
2022/06/07 14:52:29;;;;;;;2.58;1.30;;;;;;;;;;5095756;28;20090;-69
2022/06/07 14:54:55;;;;;;;1.45;1.10;;;;;;;;;;5095849;28;20494;-69
2022/06/07 14:57:23;;;;;;;1.70;1.20;;;;;;;;;;5096003;28;20048;-69
2022/06/07 14:59:49;;;;;;;3.42;0.90;;;;;;;;;;5095916;28;20126;-68
2022/06/07 15:02:21;;;;;;;3.03;1.40;;;;;;;;;;5095508;28;20040;-68
2022/06/07 15:04:54;;;;;;;2.47;1.17;;;;;;;;;;5095890;28;20036;-69
2022/06/07 15:07:21;;;;;;;2.50;1.20;;;;;;;;;;5095695;28;20071;-69
2022/06/07 15:09:47;;;;;;;3.60;1.00;;;;;;;;;;5095678;28;20028;-69
2022/06/07 15:12:16;;;;;;;1.20;1.10;;;;;;;;;;5095644;28;20122;-69
2022/06/07 15:14:44;;;;;;;2.15;1.00;;;;;;;;;;5095932;28;20161;-69
2022/06/07 15:17:13;;;;;;;3.10;1.10;;;;;;;;;;5095216;28;20032;-69
2022/06/07 15:19:39;;;;;;;1.33;1.02;;;;;;;;;;5095133;28;20036;-69
2022/06/07 15:22:06;;;;;;;1.77;0.90;;;;;;;;;;5095255;28;20075;-69